Time;durP1;ratioP1;P1;durP2;ratioP2;P2;SDS_P1;SDS_P2;PMS_P1;PMS_P2;Temp;Humidity;BMP_temperature;BMP_pressure;BME280_temperature;BME280_humidity;BME280_pressure;Samples;Min_cycle;Max_cycle;Signal;HPM_P1;HPM_P2
2023/02/23 00:02:49;;;;;;;36.63;16.98;;;14.20;61.90;;;;;;7567834;23;20010;-68
2023/02/23 00:05:50;;;;;;;49.63;18.50;;;14.20;62.20;;;;;;7541555;23;20013;-68
2023/02/23 00:08:51;;;;;;;42.97;17.10;;;14.10;62.30;;;;;;7566512;23;20007;-68
2023/02/23 00:11:56;;;;;;;39.85;16.70;;;14.10;62.50;;;;;;7567054;23;20007;-68
2023/02/23 00:14:58;;;;;;;40.45;16.23;;;14.00;62.60;;;;;;7565960;23;20014;-67
2023/02/23 00:17:59;;;;;;;39.42;16.50;;;13.90;62.60;;;;;;7539705;23;20451;-67
2023/02/23 00:21:00;;;;;;;47.15;19.17;;;13.80;62.80;;;;;;7565885;23;20014;-67
2023/02/23 00:24:04;;;;;;;35.30;15.82;;;13.80;63.10;;;;;;7565619;23;20066;-67
2023/02/23 00:27:05;;;;;;;45.45;17.08;;;13.70;63.30;;;;;;7565199;23;20006;-67
2023/02/23 00:30:08;;;;;;;43.22;16.50;;;13.70;63.50;;;;;;7540158;23;20085;-68
2023/02/23 00:33:09;;;;;;;37.70;16.17;;;13.60;63.60;;;;;;7540022;23;20017;-68
2023/02/23 00:36:12;;;;;;;39.20;16.67;;;13.60;63.70;;;;;;7565507;23;20010;-67
2023/02/23 00:39:27;;;;;;;35.72;16.20;;;13.50;63.70;;;;;;7564998;23;20030;-67
2023/02/23 00:42:31;;;;;;;49.05;17.40;;;13.50;64.00;;;;;;7565607;23;20417;-68
2023/02/23 00:45:35;;;;;;;33.55;15.98;;;13.50;64.20;;;;;;7540939;23;20038;-67
2023/02/23 00:48:36;;;;;;;39.95;17.05;;;13.40;63.90;;;;;;7539724;23;20006;-68
2023/02/23 00:51:38;;;;;;;46.33;17.05;;;13.40;64.70;;;;;;7540237;23;20003;-67
2023/02/23 00:54:40;;;;;;;38.00;17.08;;;13.30;64.70;;;;;;7540273;23;20018;-67
2023/02/23 00:57:41;;;;;;;47.25;17.35;;;13.30;64.90;;;;;;7565716;23;20002;-70
2023/02/23 01:00:42;;;;;;;43.65;17.60;;;13.30;65.00;;;;;;7540985;23;20014;-69
2023/02/23 01:03:44;;;;;;;47.42;17.80;;;13.20;65.00;;;;;;7540158;23;20336;-67
2023/02/23 01:06:45;;;;;;;51.70;16.35;;;13.20;65.10;;;;;;7540375;23;20022;-68
2023/02/23 01:09:46;;;;;;;43.58;17.70;;;13.10;65.10;;;;;;7565476;23;20301;-67
2023/02/23 01:12:50;;;;;;;43.75;17.63;;;13.00;65.20;;;;;;7566021;23;20003;-67
2023/02/23 01:15:51;;;;;;;58.70;16.95;;;13.00;65.30;;;;;;7540360;23;20071;-67
2023/02/23 01:18:54;;;;;;;41.13;18.85;;;13.00;65.50;;;;;;7539989;23;20409;-69
2023/02/23 01:21:55;;;;;;;39.85;16.27;;;12.90;65.60;;;;;;7565630;23;20022;-68
2023/02/23 01:24:57;;;;;;;38.25;17.25;;;12.90;65.70;;;;;;7542789;23;20007;-68
2023/02/23 01:27:58;;;;;;;43.33;16.05;;;12.80;65.90;;;;;;7542013;23;20086;-67
2023/02/23 01:30:59;;;;;;;41.13;16.90;;;12.80;66.10;;;;;;7542052;23;20006;-68
2023/02/23 01:34:02;;;;;;;39.47;16.80;;;12.70;66.20;;;;;;7541617;23;20471;-67
2023/02/23 01:37:04;;;;;;;43.55;16.88;;;12.70;66.40;;;;;;7541316;23;20015;-66
2023/02/23 01:40:13;;;;;;;43.05;17.63;;;12.70;66.50;;;;;;7534119;23;20029;-68
2023/02/23 01:43:19;;;;;;;37.42;17.73;;;12.70;66.60;;;;;;7541528;23;20041;-68
2023/02/23 01:46:20;;;;;;;39.60;16.55;;;12.70;66.70;;;;;;7567286;23;20038;-68
2023/02/23 01:49:28;;;;;;;44.47;16.20;;;12.70;66.80;;;;;;7565213;23;20066;-67
2023/02/23 01:52:29;;;;;;;51.30;17.15;;;12.60;66.80;;;;;;7541961;23;20011;-67
2023/02/23 01:55:30;;;;;;;38.42;16.45;;;12.60;67.00;;;;;;7565348;23;20032;-66
2023/02/23 01:58:33;;;;;;;38.17;15.13;;;12.50;67.10;;;;;;7565266;23;20085;-67
2023/02/23 02:01:37;;;;;;;36.40;15.60;;;12.50;67.20;;;;;;7565679;23;20487;-68
2023/02/23 02:04:44;;;;;;;41.30;15.90;;;12.40;67.30;;;;;;7541431;23;20014;-67
2023/02/23 02:07:48;;;;;;;43.67;17.48;;;12.40;67.50;;;;;;7565304;23;20015;-68
2023/02/23 02:10:55;;;;;;;43.78;15.70;;;12.40;68.50;;;;;;7565696;23;20007;-68
2023/02/23 02:14:04;;;;;;;35.47;14.80;;;12.40;67.60;;;;;;7565760;23;20034;-68
2023/02/23 02:17:43;;;;;;;40.65;16.45;;;12.40;67.50;;;;;;7566840;23;20011;-68
2023/02/23 02:20:51;;;;;;;46.05;16.52;;;12.50;67.60;;;;;;7541129;23;20021;-69
2023/02/23 02:24:31;;;;;;;42.60;15.95;;;12.40;67.50;;;;;;7567288;23;20017;-67
2023/02/23 02:27:35;;;;;;;;;;;12.50;67.50;;;;;;7565333;23;20074;-68
2023/02/23 02:30:58;;;;;;;45.22;15.73;;;12.50;67.40;;;;;;7566535;23;19912;-70
2023/02/23 02:34:33;;;;;;;38.08;15.45;;;12.60;67.20;;;;;;7565087;23;20090;-68
2023/02/23 02:37:43;;;;;;;38.75;16.13;;;12.60;67.20;;;;;;7564613;23;20018;-68
2023/02/23 02:41:07;;;;;;;46.25;16.25;;;12.60;67.10;;;;;;7566573;23;20127;-67
2023/02/23 02:44:17;;;;;;;35.45;15.23;;;12.60;67.10;;;;;;7565067;23;20022;-69
2023/02/23 02:47:31;;;;;;;33.00;15.25;;;12.60;67.00;;;;;;7564912;23;20014;-71
2023/02/23 02:51:11;;;;;;;33.40;14.45;;;12.70;67.00;;;;;;7564959;23;20380;-69
2023/02/23 02:54:20;;;;;;;42.60;16.48;;;12.70;66.90;;;;;;7565304;23;20440;-69
2023/02/23 02:57:26;;;;;;;37.10;15.15;;;12.90;66.90;;;;;;7565402;23;20029;-68
2023/02/23 04:19:56;;;;;;;36.30;15.40;;;12.50;67.40;;;;;;7565095;23;20086;-68
2023/02/23 04:22:57;;;;;;;41.28;16.05;;;12.50;67.40;;;;;;7563702;23;20006;-70
2023/02/23 04:25:58;;;;;;;43.67;16.88;;;12.40;67.40;;;;;;7565405;23;20479;-68
2023/02/23 04:28:59;;;;;;;45.28;15.63;;;12.40;67.40;;;;;;7565094;23;20363;-68
2023/02/23 04:32:00;;;;;;;33.58;15.82;;;12.40;67.40;;;;;;7565416;23;20007;-68
2023/02/23 04:35:01;;;;;;;32.35;15.07;;;12.40;67.40;;;;;;7563921;23;20006;-67
2023/02/23 04:38:02;;;;;;;34.70;13.73;;;12.40;67.40;;;;;;7564954;23;20017;-69
2023/02/23 04:41:03;;;;;;;36.28;15.10;;;12.40;67.40;;;;;;7565114;23;20010;-69
2023/02/23 04:44:04;;;;;;;32.47;13.68;;;12.30;67.30;;;;;;7565260;23;20522;-69
2023/02/23 04:47:05;;;;;;;44.58;15.55;;;12.40;67.40;;;;;;7564757;23;20480;-69
2023/02/23 04:50:07;;;;;;;31.00;14.07;;;12.40;67.40;;;;;;7539665;23;20384;-68
2023/02/23 04:53:08;;;;;;;30.20;13.68;;;12.30;67.30;;;;;;7565316;23;20010;-67
2023/02/23 04:56:10;;;;;;;43.45;13.27;;;12.30;67.30;;;;;;7540107;23;20018;-67
2023/02/23 04:59:11;;;;;;;33.63;14.43;;;12.30;67.30;;;;;;7567284;23;20324;-69
2023/02/23 05:02:12;;;;;;;31.90;13.63;;;12.20;67.20;;;;;;7567683;23;20015;-69
2023/02/23 05:05:12;;;;;;;41.70;15.60;;;12.20;67.30;;;;;;7567526;23;20010;-68
2023/02/23 05:08:13;;;;;;;39.17;13.75;;;12.10;67.40;;;;;;7567381;23;20358;-67
2023/02/23 05:11:14;;;;;;;33.30;13.80;;;12.00;67.50;;;;;;7567717;23;20391;-67
2023/02/23 05:14:15;;;;;;;31.80;13.38;;;12.00;67.50;;;;;;7567953;23;20014;-69
2023/02/23 05:17:16;;;;;;;31.08;13.38;;;11.90;67.60;;;;;;7567429;23;20884;-67
2023/02/23 05:20:17;;;;;;;31.45;13.23;;;11.80;67.70;;;;;;7567563;23;20428;-66
2023/02/23 05:23:20;;;;;;;31.75;12.82;;;11.80;67.80;;;;;;7517906;23;20018;-67
2023/02/23 05:26:21;;;;;;;36.58;13.98;;;11.80;68.00;;;;;;7541948;23;20397;-69
2023/02/23 05:29:22;;;;;;;32.08;12.95;;;11.70;68.20;;;;;;7567108;23;20070;-68
2023/02/23 05:32:23;;;;;;;29.15;13.43;;;11.60;68.20;;;;;;7567373;23;20013;-68
2023/02/23 05:35:25;;;;;;;35.55;13.45;;;11.60;68.30;;;;;;7567243;23;20014;-69
2023/02/23 05:38:26;;;;;;;31.95;13.88;;;11.60;69.20;;;;;;7541275;23;20017;-68
2023/02/23 05:41:27;;;;;;;30.42;13.27;;;11.60;68.40;;;;;;7541395;23;20015;-68
2023/02/23 05:44:28;;;;;;;27.55;12.50;;;11.60;68.50;;;;;;7567206;23;20472;-69
2023/02/23 05:47:30;;;;;;;29.63;12.40;;;11.50;68.50;;;;;;7567538;23;20018;-67
2023/02/23 05:50:31;;;;;;;25.27;12.25;;;11.50;68.70;;;;;;7570975;23;20003;-68
2023/02/23 05:53:32;;;;;;;26.75;12.48;;;11.40;68.80;;;;;;7574992;23;20098;-68
2023/02/23 05:56:33;;;;;;;31.25;12.30;;;11.40;68.90;;;;;;7571247;23;20014;-68
2023/02/23 05:59:34;;;;;;;27.63;12.02;;;11.40;69.00;;;;;;7541115;23;20025;-67
2023/02/23 06:02:35;;;;;;;35.13;13.50;;;11.40;69.20;;;;;;7566900;23;20014;-70
2023/02/23 06:05:36;;;;;;;30.40;12.32;;;11.40;69.30;;;;;;7541273;23;20053;-68
2023/02/23 06:08:37;;;;;;;25.27;11.77;;;11.30;69.30;;;;;;7565912;23;20037;-68
2023/02/23 06:11:38;;;;;;;24.75;11.52;;;11.40;69.30;;;;;;7566907;23;20103;-69
2023/02/23 06:14:39;;;;;;;24.13;10.43;;;11.40;69.20;;;;;;7566580;23;20443;-67
2023/02/23 06:17:39;;;;;;;42.38;11.70;;;11.40;69.20;;;;;;7566131;23;20033;-68
2023/02/23 06:20:40;;;;;;;26.48;11.15;;;11.40;69.20;;;;;;7566359;23;20085;-71
2023/02/23 06:23:41;;;;;;;29.98;11.52;;;11.30;69.20;;;;;;7566324;23;20010;-70
2023/02/23 06:26:42;;;;;;;26.27;10.73;;;11.30;69.20;;;;;;7566411;23;20146;-69
2023/02/23 06:29:43;;;;;;;25.30;11.15;;;11.20;69.10;;;;;;7566437;23;20002;-69
2023/02/23 06:32:44;;;;;;;29.13;10.10;;;11.20;69.10;;;;;;7566830;23;20016;-69
2023/02/23 06:35:49;;;;;;;26.83;10.63;;;11.20;69.10;;;;;;7541376;23;20014;-69
2023/02/23 06:38:49;;;;;;;25.83;11.23;;;11.10;69.00;;;;;;7566511;23;20017;-67
2023/02/23 06:41:50;;;;;;;26.10;10.95;;;11.10;69.20;;;;;;7540716;23;20375;-69
2023/02/23 06:44:51;;;;;;;25.80;10.07;;;11.10;69.20;;;;;;7566131;23;20007;-68
2023/02/23 06:47:52;;;;;;;30.30;12.15;;;11.10;69.20;;;;;;7565649;23;20037;-68
2023/02/23 06:50:53;;;;;;;31.23;11.23;;;11.00;69.20;;;;;;7540861;23;20408;-70
2023/02/23 06:53:54;;;;;;;20.55;10.63;;;11.00;69.10;;;;;;7565973;23;20166;-69
2023/02/23 06:56:55;;;;;;;22.33;9.45;;;11.00;69.10;;;;;;7565805;23;20124;-69
2023/02/23 06:59:56;;;;;;;19.08;9.05;;;11.00;69.20;;;;;;7565587;23;20006;-69
2023/02/23 07:02:58;;;;;;;18.13;9.45;;;11.00;69.20;;;;;;7565508;23;20010;-68
2023/02/23 07:05:59;;;;;;;20.83;9.05;;;11.00;69.10;;;;;;7565229;23;20011;-68
2023/02/23 07:09:00;;;;;;;19.38;9.18;;;11.00;69.00;;;;;;7539354;23;20014;-69
2023/02/23 07:12:01;;;;;;;18.42;9.02;;;11.00;68.80;;;;;;7565669;23;20332;-69
2023/02/23 07:15:02;;;;;;;19.15;9.38;;;11.00;68.70;;;;;;7565662;23;20003;-68
2023/02/23 07:18:03;;;;;;;22.55;10.48;;;11.00;68.70;;;;;;7565500;23;20077;-69
2023/02/23 07:21:04;;;;;;;21.35;9.93;;;11.00;68.80;;;;;;7565402;23;20015;-70
2023/02/23 07:24:06;;;;;;;18.70;8.88;;;11.00;68.70;;;;;;7565502;23;20015;-68
2023/02/23 07:27:07;;;;;;;33.10;9.68;;;11.10;68.50;;;;;;7515674;23;20010;-67
2023/02/23 07:30:12;;;;;;;22.23;10.23;;;11.10;68.40;;;;;;7565479;23;20061;-70
2023/02/23 07:33:13;;;;;;;25.70;11.02;;;11.10;68.30;;;;;;7565838;23;20026;-69
2023/02/23 07:36:13;;;;;;;25.23;10.88;;;11.10;68.20;;;;;;7564857;23;20090;-68
2023/02/23 07:39:15;;;;;;;26.63;11.68;;;11.10;68.20;;;;;;7565104;23;20021;-68
2023/02/23 07:42:15;;;;;;;24.40;10.05;;;11.10;68.20;;;;;;7565179;23;20010;-69
2023/02/23 07:45:17;;;;;;;39.50;13.00;;;11.20;68.30;;;;;;7565376;23;20011;-70
2023/02/23 07:48:18;;;;;;;43.88;12.20;;;11.20;68.30;;;;;;7564834;23;20021;-68
2023/02/23 07:51:19;;;;;;;25.63;11.23;;;11.30;68.20;;;;;;7539618;23;20021;-68
2023/02/23 07:54:21;;;;;;;28.52;12.02;;;11.40;68.00;;;;;;7564829;23;20050;-68
2023/02/23 07:57:22;;;;;;;25.75;11.43;;;11.40;67.70;;;;;;7564777;23;20050;-68
2023/02/23 08:00:23;;;;;;;31.20;12.32;;;11.50;67.70;;;;;;7565095;23;20014;-68
2023/02/23 08:03:25;;;;;;;21.85;10.68;;;11.60;67.70;;;;;;7565616;23;20021;-68
2023/02/23 08:06:26;;;;;;;23.40;11.23;;;11.70;67.50;;;;;;7539497;23;20010;-68
2023/02/23 08:09:27;;;;;;;24.67;11.38;;;11.80;67.20;;;;;;7565514;23;20010;-70
2023/02/23 08:12:28;;;;;;;28.30;10.90;;;11.90;67.00;;;;;;7540169;23;20016;-70
2023/02/23 08:15:30;;;;;;;22.55;10.32;;;12.00;66.70;;;;;;7566416;23;20006;-69
2023/02/23 08:18:31;;;;;;;26.58;9.63;;;12.00;66.40;;;;;;7540839;23;20320;-69
2023/02/23 08:21:32;;;;;;;19.13;9.63;;;12.10;66.30;;;;;;7567107;23;20033;-71
2023/02/23 08:24:33;;;;;;;22.13;9.73;;;12.10;66.00;;;;;;7566566;23;20078;-69
2023/02/23 08:27:36;;;;;;;22.85;9.82;;;12.10;65.70;;;;;;7565379;23;20066;-69
2023/02/23 08:30:38;;;;;;;22.95;10.68;;;12.10;65.70;;;;;;7565146;23;20009;-69
2023/02/23 08:33:39;;;;;;;27.52;10.75;;;12.20;65.70;;;;;;7565232;23;20089;-68
2023/02/23 08:36:42;;;;;;;32.38;11.85;;;12.30;65.80;;;;;;7566885;23;20013;-69
2023/02/23 08:39:46;;;;;;;25.60;10.18;;;12.30;65.60;;;;;;7567732;23;20348;-68
2023/02/23 08:42:53;;;;;;;26.38;11.40;;;12.40;65.50;;;;;;7565596;23;20345;-68
2023/02/23 08:45:54;;;;;;;26.73;11.90;;;12.40;65.40;;;;;;7565184;23;20421;-70
2023/02/23 08:48:56;;;;;;;29.52;12.18;;;12.50;65.50;;;;;;7564532;23;20025;-68
2023/02/23 08:51:57;;;;;;;23.35;9.85;;;12.60;65.40;;;;;;7565179;23;20003;-70
2023/02/23 08:54:57;;;;;;;25.38;11.75;;;12.70;65.20;;;;;;7564627;23;20014;-68
2023/02/23 08:57:58;;;;;;;26.58;11.80;;;12.70;64.80;;;;;;7564927;23;20014;-68
2023/02/23 09:01:00;;;;;;;26.10;11.88;;;12.80;64.60;;;;;;7564890;23;20010;-66
2023/02/23 09:04:01;;;;;;;58.47;25.85;;;12.90;64.70;;;;;;7564757;23;20006;-70
2023/02/23 09:07:02;;;;;;;86.75;42.80;;;13.00;64.60;;;;;;7564544;23;20039;-68
2023/02/23 09:10:03;;;;;;;94.88;46.83;;;13.10;64.30;;;;;;7564658;23;20323;-69
2023/02/23 09:13:04;;;;;;;84.25;42.88;;;13.20;64.00;;;;;;7514839;23;20446;-67
2023/02/23 09:16:09;;;;;;;92.63;49.03;;;13.30;63.60;;;;;;7514709;23;20006;-67
2023/02/23 09:19:10;;;;;;;77.25;38.35;;;13.40;64.10;;;;;;7563821;23;20007;-69
2023/02/23 09:22:11;;;;;;;80.32;40.45;;;13.50;62.90;;;;;;7564425;23;20006;-69
2023/02/23 09:25:13;;;;;;;88.05;40.78;;;13.60;62.50;;;;;;7564100;23;20013;-69
2023/02/23 09:28:16;;;;;;;75.40;33.63;;;13.60;62.20;;;;;;7564406;23;20030;-68
2023/02/23 09:31:20;;;;;;;58.90;29.38;;;13.70;62.20;;;;;;7564237;23;20013;-68
2023/02/23 09:34:21;;;;;;;71.97;34.17;;;13.80;61.90;;;;;;7564309;23;20006;-70
2023/02/23 09:37:23;;;;;;;78.00;41.20;;;14.00;61.70;;;;;;7563996;23;20021;-69
2023/02/23 09:40:34;;;;;;;91.88;44.90;;;14.10;61.20;;;;;;7559150;23;20022;-70
2023/02/23 09:43:46;;;;;;;93.13;47.08;;;14.20;61.00;;;;;;7562942;23;20077;-68
2023/02/23 09:46:56;;;;;;;82.43;42.35;;;14.40;60.90;;;;;;7564851;23;20070;-68
2023/02/23 09:50:02;;;;;;;74.78;40.97;;;14.60;60.70;;;;;;7566416;23;20002;-68
2023/02/23 09:53:31;;;;;;;45.00;23.52;;;14.80;60.20;;;;;;7567107;23;20003;-70
2023/02/23 09:56:38;;;;;;;37.88;18.45;;;15.00;59.80;;;;;;7540853;23;20042;-69
2023/02/23 09:59:39;;;;;;;33.67;13.68;;;15.10;59.40;;;;;;7564168;23;20010;-70
2023/02/23 10:03:10;;;;;;;37.03;14.07;;;15.20;59.30;;;;;;7566097;23;20345;-71
2023/02/23 10:06:14;;;;;;;24.92;11.93;;;15.30;59.20;;;;;;7565499;23;20014;-70
2023/02/23 10:09:54;;;;;;;28.27;12.18;;;15.40;59.00;;;;;;7563679;23;20100;-70
2023/02/23 10:13:11;;;;;;;;;;;15.60;58.60;;;;;;7566033;23;20022;-68
2023/02/23 10:16:14;;;;;;;22.92;10.27;;;15.70;58.00;;;;;;7566528;23;20283;-68
2023/02/23 10:19:47;;;;;;;30.02;11.10;;;15.80;57.60;;;;;;7540454;23;20041;-69
2023/02/23 10:22:50;;;;;;;32.17;11.52;;;15.80;57.40;;;;;;7564833;23;20389;-69
2023/02/23 10:25:58;;;;;;;27.50;11.25;;;15.90;57.30;;;;;;7564596;23;20293;-71
2023/02/23 10:28:59;;;;;;;29.52;11.35;;;16.00;57.30;;;;;;7566076;23;20087;-70
2023/02/23 10:32:38;;;;;;;19.80;10.48;;;16.20;57.30;;;;;;7566131;23;20459;-72
2023/02/23 10:35:39;;;;;;;24.45;10.95;;;16.50;57.10;;;;;;7566076;23;20033;-72
2023/02/23 10:38:40;;;;;;;26.52;11.10;;;16.80;56.30;;;;;;7540394;23;20093;-71
2023/02/23 10:41:41;;;;;;;25.55;11.55;;;17.00;55.60;;;;;;7566221;23;20010;-69
2023/02/23 10:44:44;;;;;;;42.45;16.08;;;17.30;55.20;;;;;;7540506;23;20425;-68
2023/02/23 10:47:47;;;;;;;29.73;11.80;;;17.30;54.50;;;;;;7540264;23;20010;-69
2023/02/23 10:50:51;;;;;;;26.63;11.57;;;17.40;54.30;;;;;;7566095;23;20026;-69
2023/02/23 10:53:52;;;;;;;21.02;10.00;;;17.50;54.00;;;;;;7566073;23;20010;-71
2023/02/23 10:56:53;;;;;;;19.90;10.05;;;17.60;53.90;;;;;;7565888;23;20010;-70
2023/02/23 11:00:06;;;;;;;27.45;9.80;;;17.80;54.00;;;;;;7539916;23;20057;-68
2023/02/23 11:03:28;;;;;;;23.25;8.93;;;18.00;53.70;;;;;;7565460;23;20118;-69
2023/02/23 11:06:38;;;;;;;28.65;9.88;;;18.10;52.80;;;;;;7565365;23;20432;-69
2023/02/23 11:09:40;;;;;;;25.60;9.95;;;18.20;53.00;;;;;;7563137;23;20321;-68
2023/02/23 11:12:41;;;;;;;23.67;8.93;;;18.30;52.40;;;;;;7565267;23;20061;-68
2023/02/23 11:15:42;;;;;;;19.98;8.77;;;18.50;52.30;;;;;;7565958;23;20065;-69
2023/02/23 11:18:56;;;;;;;27.55;8.15;;;18.80;51.70;;;;;;7539938;23;20034;-69
2023/02/23 11:21:57;;;;;;;16.67;7.40;;;19.00;50.70;;;;;;7565694;23;20124;-68
2023/02/23 11:25:00;;;;;;;14.18;7.05;;;19.10;50.40;;;;;;7565850;23;20073;-70
2023/02/23 11:28:01;;;;;;;16.38;7.65;;;19.20;50.30;;;;;;7539738;23;20125;-69
2023/02/23 11:31:21;;;;;;;17.90;7.80;;;19.40;50.20;;;;;;7566959;23;20082;-68
2023/02/23 11:34:29;;;;;;;18.60;7.93;;;19.60;49.60;;;;;;7567605;23;20002;-68
2023/02/23 11:37:30;;;;;;;;;;;19.80;49.00;;;;;;7541433;23;20060;-68
2023/02/23 11:40:33;;;;;;;17.58;5.90;;;19.90;48.00;;;;;;7568370;23;19931;-70
2023/02/23 11:43:34;;;;;;;13.88;6.15;;;19.80;47.20;;;;;;7565438;23;20014;-70
2023/02/23 11:46:37;;;;;;;14.30;7.22;;;19.60;47.20;;;;;;7565131;23;20014;-68
2023/02/23 11:49:42;;;;;;;12.18;6.45;;;19.40;47.40;;;;;;7565155;23;20010;-67
2023/02/23 11:52:43;;;;;;;12.57;6.10;;;19.40;47.70;;;;;;7539509;23;20013;-68
2023/02/23 11:55:53;;;;;;;17.10;7.75;;;19.60;47.20;;;;;;7539526;23;20006;-70
2023/02/23 11:59:00;;;;;;;12.93;6.95;;;19.80;46.80;;;;;;7564641;23;20317;-68
2023/02/23 12:02:24;;;;;;;17.08;7.28;;;19.90;46.50;;;;;;7564881;23;20037;-69
2023/02/23 12:05:28;;;;;;;16.55;6.50;;;19.90;46.20;;;;;;7539619;23;20016;-70
2023/02/23 12:08:47;;;;;;;17.17;7.47;;;19.90;46.30;;;;;;7564301;23;20010;-69
2023/02/23 12:12:13;;;;;;;18.02;7.43;;;20.10;46.70;;;;;;7539590;23;20041;-69
2023/02/23 12:15:35;;;;;;;;;;;20.60;46.20;;;;;;7539679;23;20014;-70
2023/02/23 12:18:43;;;;;;;20.52;8.05;;;21.40;45.00;;;;;;7564752;23;20008;-69
2023/02/23 12:22:07;;;;;;;13.32;5.85;;;22.10;43.60;;;;;;7564868;23;20527;-68
2023/02/23 12:25:22;;;;;;;12.93;6.78;;;22.70;42.60;;;;;;7554052;23;20761;-70
2023/02/23 12:28:36;;;;;;;15.65;7.65;;;23.00;41.60;;;;;;7538416;23;20090;-70
2023/02/23 12:31:42;;;;;;;15.82;7.47;;;22.90;40.60;;;;;;7563930;23;20014;-68
2023/02/23 12:34:51;;;;;;;18.75;8.25;;;22.70;40.60;;;;;;7565019;23;20006;-68
2023/02/23 12:38:10;;;;;;;18.10;8.80;;;22.50;40.70;;;;;;7537783;23;20036;-69
2023/02/23 12:41:47;;;;;;;15.98;7.05;;;22.20;41.40;;;;;;7538930;23;20022;-70
2023/02/23 12:45:21;;;;;;;16.17;6.90;;;22.00;41.90;;;;;;7553934;23;20010;-69
2023/02/23 12:48:37;;;;;;;18.65;6.60;;;21.70;42.30;;;;;;7544548;23;20029;-70
2023/02/23 12:52:01;;;;;;;16.48;7.38;;;21.40;42.10;;;;;;7515230;23;20039;-67
2023/02/23 12:55:03;;;;;;;17.65;6.90;;;21.10;42.70;;;;;;7539458;23;20310;-68
2023/02/23 12:58:29;;;;;;;16.67;5.90;;;20.80;43.10;;;;;;7563855;23;20083;-70
2023/02/23 13:01:35;;;;;;;10.35;4.93;;;20.60;43.20;;;;;;7514880;23;20033;-68
2023/02/23 13:04:57;;;;;;;16.55;5.88;;;20.40;43.30;;;;;;7564100;23;20453;-72
2023/02/23 13:08:22;;;;;;;20.17;6.05;;;20.10;43.50;;;;;;7563435;23;20057;-69
2023/02/23 13:11:38;;;;;;;15.57;6.55;;;19.90;43.60;;;;;;7487793;23;20015;-68
2023/02/23 13:14:47;;;;;;;21.83;6.88;;;19.80;43.90;;;;;;7463903;23;20086;-68
2023/02/23 13:17:55;;;;;;;34.13;6.85;;;19.80;44.10;;;;;;7486622;23;20033;-69
2023/02/23 13:21:15;;;;;;;;;;;19.90;44.20;;;;;;7489692;23;20152;-68
2023/02/23 13:24:18;;;;;;;21.05;7.53;;;20.00;44.00;;;;;;7489381;23;19909;-67
2023/02/23 13:27:37;;;;;;;21.83;7.15;;;20.00;43.80;;;;;;7488787;23;20015;-69
2023/02/23 13:30:44;;;;;;;18.25;7.32;;;20.00;44.00;;;;;;7489631;23;20112;-68
2023/02/23 13:33:45;;;;;;;23.27;7.70;;;19.90;44.20;;;;;;7489525;23;20015;-70
2023/02/23 13:36:49;;;;;;;22.52;6.93;;;19.70;44.30;;;;;;7489984;23;20317;-68
2023/02/23 13:40:13;;;;;;;15.00;6.90;;;19.60;44.40;;;;;;7514014;23;20026;-68
2023/02/23 13:43:33;;;;;;;22.58;7.28;;;19.40;44.60;;;;;;7524985;23;20011;-68
2023/02/23 13:46:36;;;;;;;19.88;7.63;;;19.30;44.90;;;;;;7501585;23;20455;-69
2023/02/23 13:49:45;;;;;;;14.18;7.07;;;19.10;45.10;;;;;;7563178;23;20030;-70
2023/02/23 13:52:47;;;;;;;15.38;7.00;;;19.20;45.40;;;;;;7563659;23;20002;-70
2023/02/23 13:55:50;;;;;;;14.93;7.22;;;19.10;45.50;;;;;;7565386;23;20033;-70
2023/02/23 13:58:56;;;;;;;15.48;7.05;;;19.00;45.70;;;;;;7563120;23;20369;-68
2023/02/23 14:02:01;;;;;;;14.77;6.82;;;19.10;45.80;;;;;;7565085;23;20126;-69
2023/02/23 14:05:17;;;;;;;16.08;6.68;;;19.10;45.60;;;;;;7563089;23;20017;-69
2023/02/23 14:08:44;;;;;;;16.80;5.90;;;19.20;45.70;;;;;;7562463;23;20021;-69
2023/02/23 14:12:24;;;;;;;17.63;6.03;;;19.20;45.50;;;;;;7564292;23;20349;-69
2023/02/23 14:15:26;;;;;;;12.27;5.53;;;19.30;45.40;;;;;;7430461;23;20011;-70
2023/02/23 14:18:31;;;;;;;17.27;6.28;;;19.40;45.40;;;;;;7453392;23;20020;-70
2023/02/23 14:21:51;;;;;;;15.77;7.38;;;19.40;45.40;;;;;;7453878;23;20207;-69
2023/02/23 14:25:29;;;;;;;15.25;6.47;;;19.40;45.50;;;;;;7453975;23;20091;-69
2023/02/23 14:28:31;;;;;;;16.88;5.95;;;19.30;45.70;;;;;;7429958;23;20395;-68
2023/02/23 14:31:34;;;;;;;13.35;6.80;;;19.30;45.70;;;;;;7430549;23;20584;-69
2023/02/23 14:35:01;;;;;;;18.13;6.85;;;19.40;45.70;;;;;;7430775;23;20446;-70
2023/02/23 14:38:32;;;;;;;20.83;6.65;;;19.70;45.60;;;;;;7450405;23;20723;-69
2023/02/23 14:41:51;;;;;;;23.67;6.30;;;19.80;45.30;;;;;;7350404;24;20073;-67
2023/02/23 14:44:54;;;;;;;14.95;6.03;;;19.90;45.10;;;;;;7350498;24;20009;-68
2023/02/23 14:48:12;;;;;;;17.23;6.32;;;20.00;45.10;;;;;;7350272;24;20020;-68
2023/02/23 14:51:53;;;;;;;15.30;6.57;;;20.00;44.90;;;;;;7368430;24;20023;-69
2023/02/23 14:55:24;;;;;;;13.35;5.68;;;20.00;44.90;;;;;;7350208;24;20009;-70
2023/02/23 14:58:32;;;;;;;15.85;6.18;;;20.00;44.80;;;;;;7328105;24;20035;-69
2023/02/23 15:01:35;;;;;;;22.17;6.72;;;19.80;44.90;;;;;;7350920;24;20492;-70
2023/02/23 15:04:37;;;;;;;18.35;6.72;;;19.70;45.10;;;;;;7351465;24;20031;-68
2023/02/23 15:07:40;;;;;;;18.13;6.25;;;19.60;45.20;;;;;;7350391;24;20023;-68
2023/02/23 15:10:43;;;;;;;14.57;5.70;;;19.50;45.30;;;;;;7351173;24;20122;-68
2023/02/23 15:13:49;;;;;;;19.55;6.55;;;19.50;45.50;;;;;;7327876;24;20096;-69
2023/02/23 15:16:50;;;;;;;12.18;5.93;;;19.40;45.50;;;;;;7381219;23;20433;-68
2023/02/23 15:19:56;;;;;;;24.63;6.47;;;19.40;45.60;;;;;;7488007;23;20173;-69
2023/02/23 15:22:59;;;;;;;15.45;5.78;;;19.40;45.70;;;;;;7464422;23;20055;-71
2023/02/23 15:26:00;;;;;;;13.65;5.55;;;19.40;45.70;;;;;;7463980;23;20078;-70
2023/02/23 15:29:13;;;;;;;21.27;6.55;;;19.30;45.80;;;;;;7487130;23;20469;-69
2023/02/23 15:32:26;;;;;;;15.18;5.93;;;19.30;45.90;;;;;;7555272;23;20015;-69
2023/02/23 15:35:29;;;;;;;23.77;6.63;;;19.30;46.00;;;;;;7562856;23;20006;-68
2023/02/23 15:38:34;;;;;;;13.82;6.13;;;19.20;46.10;;;;;;7562595;23;20034;-69
2023/02/23 15:41:37;;;;;;;11.68;5.88;;;19.20;46.20;;;;;;7562531;23;20397;-68
2023/02/23 15:44:38;;;;;;;27.40;6.63;;;19.10;46.30;;;;;;7562069;23;20017;-68
2023/02/23 15:47:39;;;;;;;22.15;7.07;;;19.10;46.50;;;;;;7536430;23;20014;-69
2023/02/23 15:50:42;;;;;;;12.13;6.20;;;19.00;46.60;;;;;;7562421;23;20075;-69
2023/02/23 15:53:44;;;;;;;16.00;5.97;;;18.90;46.80;;;;;;7562573;23;20009;-68
2023/02/23 15:56:55;;;;;;;11.95;6.28;;;18.90;47.00;;;;;;7562402;23;20117;-70
2023/02/23 15:59:59;;;;;;;19.85;6.82;;;18.80;47.10;;;;;;7536564;23;20410;-68
2023/02/23 16:03:03;;;;;;;46.65;7.28;;;18.80;47.30;;;;;;7562582;23;20007;-68
2023/02/23 16:06:23;;;;;;;21.88;6.57;;;18.60;48.00;;;;;;7537624;23;20073;-69
2023/02/23 16:09:27;;;;;;;17.83;6.82;;;18.60;47.60;;;;;;7562270;23;20061;-68
2023/02/23 16:12:34;;;;;;;16.02;6.45;;;18.60;47.70;;;;;;7562416;23;20313;-70
2023/02/23 16:15:37;;;;;;;18.90;7.47;;;18.60;47.90;;;;;;7537048;23;20017;-69
2023/02/23 16:18:41;;;;;;;19.48;6.90;;;18.50;48.00;;;;;;7536035;23;20006;-68
2023/02/23 16:21:48;;;;;;;30.08;6.32;;;18.50;48.10;;;;;;7562657;23;20496;-68
2023/02/23 16:24:58;;;;;;;17.20;6.68;;;18.50;48.20;;;;;;7562387;23;20029;-70
2023/02/23 16:28:02;;;;;;;23.83;6.50;;;18.40;48.30;;;;;;7562241;23;20313;-69
2023/02/23 16:31:05;;;;;;;18.33;7.22;;;18.30;48.40;;;;;;7562320;23;20361;-69
2023/02/23 16:34:18;;;;;;;12.55;5.55;;;18.30;48.60;;;;;;7537060;23;20006;-68
2023/02/23 16:37:24;;;;;;;16.85;6.65;;;18.30;48.80;;;;;;7536889;23;20042;-69
2023/02/23 16:40:25;;;;;;;20.58;7.50;;;18.20;48.90;;;;;;7563032;23;20420;-69
2023/02/23 16:43:28;;;;;;;15.00;7.20;;;17.70;48.80;;;;;;7536970;23;20427;-67
2023/02/23 16:46:36;;;;;;;22.38;7.97;;;18.10;49.10;;;;;;7536657;23;20021;-70
2023/02/23 16:49:37;;;;;;;26.75;6.57;;;18.10;49.30;;;;;;7536121;23;20304;-69
2023/02/23 16:52:38;;;;;;;18.73;6.80;;;18.00;49.40;;;;;;7562885;23;20025;-69
2023/02/23 16:55:47;;;;;;;20.42;7.45;;;17.90;49.60;;;;;;7539269;23;20069;-68
2023/02/23 16:58:56;;;;;;;19.23;7.88;;;17.90;49.80;;;;;;7538966;23;20026;-68
2023/02/23 17:01:57;;;;;;;23.83;7.88;;;17.80;50.00;;;;;;7565223;23;20018;-68
2023/02/23 17:04:58;;;;;;;19.02;7.07;;;17.70;50.20;;;;;;7564439;23;20006;-69
2023/02/23 17:07:59;;;;;;;15.50;7.40;;;17.70;50.50;;;;;;7538743;23;20109;-69
2023/02/23 17:11:01;;;;;;;16.45;6.97;;;17.60;50.60;;;;;;7538747;23;20002;-69
2023/02/23 17:14:02;;;;;;;17.70;6.93;;;17.60;50.80;;;;;;7539114;23;20109;-70